Time;durP1;ratioP1;P1;durP2;ratioP2;P2;SDS_P1;SDS_P2;PMS_P1;PMS_P2;Temp;Humidity;BMP_temperature;BMP_pressure;BME280_temperature;BME280_humidity;BME280_pressure;Samples;Min_cycle;Max_cycle;Signal;HPM_P1;HPM_P2
2023/12/14 00:01:16;;;;;;;3.27;2.00;;;7.30;98.00;;;;;;5011270;28;20504;-66
2023/12/14 00:03:45;;;;;;;2.60;2.00;;;7.40;98.00;;;;;;5011280;28;20879;-66
2023/12/14 00:06:12;;;;;;;2.77;2.10;;;7.50;98.00;;;;;;4993824;28;20545;-65
2023/12/14 00:08:39;;;;;;;3.10;1.80;;;7.50;98.00;;;;;;5011249;28;20482;-66
2023/12/14 00:11:07;;;;;;;2.10;1.60;;;7.40;98.00;;;;;;5011515;28;20574;-65
2023/12/14 00:13:34;;;;;;;5.00;2.00;;;7.50;98.00;;;;;;5014808;28;20457;-66
2023/12/14 00:16:01;;;;;;;6.73;1.77;;;7.50;98.00;;;;;;5014716;28;20517;-65
2023/12/14 00:18:30;;;;;;;2.90;1.97;;;7.50;98.00;;;;;;5015007;28;20450;-66
2023/12/14 00:20:59;;;;;;;5.23;2.03;;;7.60;98.00;;;;;;5014741;28;21028;-65
2023/12/14 00:23:28;;;;;;;2.43;1.80;;;7.40;98.00;;;;;;4997720;28;20462;-66
2023/12/14 00:25:56;;;;;;;2.77;1.80;;;7.40;98.00;;;;;;5014712;28;20461;-65
2023/12/14 00:28:23;;;;;;;2.33;1.90;;;7.40;98.00;;;;;;5014669;28;20476;-66
2023/12/14 00:30:50;;;;;;;2.40;1.83;;;7.50;98.00;;;;;;5014473;28;20546;-66
2023/12/14 00:33:18;;;;;;;1.90;1.67;;;7.60;98.00;;;;;;5014628;28;20513;-66
2023/12/14 00:35:47;;;;;;;2.80;1.77;;;7.50;98.00;;;;;;5014401;28;20454;-66
2023/12/14 00:38:14;;;;;;;3.10;2.30;;;7.60;98.00;;;;;;5014498;28;20457;-66
2023/12/14 00:40:41;;;;;;;3.40;2.00;;;7.50;98.00;;;;;;4980833;28;20950;-66
2023/12/14 00:43:08;;;;;;;3.40;2.00;;;7.40;98.00;;;;;;5014380;28;20455;-66
2023/12/14 00:45:35;;;;;;;4.00;2.00;;;7.40;98.00;;;;;;5014541;28;20455;-66
2023/12/14 00:48:02;;;;;;;5.83;2.17;;;7.50;98.00;;;;;;5014388;28;20512;-66
2023/12/14 00:50:29;;;;;;;2.80;2.00;;;7.40;98.00;;;;;;5014273;28;20497;-67
2023/12/14 00:52:57;;;;;;;4.40;2.33;;;7.50;98.00;;;;;;5014379;28;20792;-65
2023/12/14 00:55:25;;;;;;;2.37;1.87;;;7.40;98.00;;;;;;5014379;28;20452;-66
2023/12/14 00:57:52;;;;;;;3.37;2.00;;;7.40;98.00;;;;;;5014350;28;20473;-65
2023/12/14 01:00:20;;;;;;;3.50;2.40;;;7.50;98.00;;;;;;5014342;28;20455;-66
2023/12/14 01:02:47;;;;;;;3.03;2.10;;;7.40;98.00;;;;;;5014158;28;20466;-66
2023/12/14 01:05:14;;;;;;;3.23;2.40;;;7.50;98.00;;;;;;5013912;28;20497;-66
2023/12/14 01:07:41;;;;;;;2.80;2.10;;;7.50;98.00;;;;;;5014177;28;20454;-65
2023/12/14 01:10:10;;;;;;;3.77;2.17;;;7.50;98.00;;;;;;5013773;28;20508;-67
2023/12/14 01:12:38;;;;;;;3.47;2.10;;;7.60;98.00;;;;;;5013938;28;20467;-66
2023/12/14 01:15:06;;;;;;;4.03;2.30;;;7.70;98.00;;;;;;5013557;28;20462;-65
2023/12/14 01:17:36;;;;;;;3.67;2.30;;;7.60;98.00;;;;;;5013884;28;20521;-66
2023/12/14 01:20:06;;;;;;;8.60;2.40;;;7.50;98.00;;;;;;5013307;28;20462;-65
2023/12/14 01:22:33;;;;;;;4.13;2.37;;;7.40;98.00;;;;;;5012973;28;20564;-65
2023/12/14 01:25:00;;;;;;;4.80;2.93;;;7.50;98.00;;;;;;5013081;28;20907;-65
2023/12/14 01:27:28;;;;;;;3.73;2.27;;;7.40;98.00;;;;;;5023041;28;20496;-66
2023/12/14 01:29:55;;;;;;;3.70;2.27;;;7.30;98.00;;;;;;5033870;28;20513;-65
2023/12/14 01:32:22;;;;;;;4.40;2.40;;;7.30;98.00;;;;;;5033933;28;20515;-66
2023/12/14 01:34:49;;;;;;;3.40;2.47;;;7.30;98.00;;;;;;5033005;28;20450;-66
2023/12/14 01:37:16;;;;;;;3.37;2.30;;;7.20;98.00;;;;;;5032254;28;20451;-65
2023/12/14 01:39:43;;;;;;;4.70;2.50;;;7.30;98.00;;;;;;5032726;28;20477;-66
2023/12/14 01:42:10;;;;;;;5.13;2.50;;;7.30;98.00;;;;;;5033376;28;21112;-66
2023/12/14 01:44:40;;;;;;;4.80;2.33;;;7.40;98.00;;;;;;5033767;28;20847;-65
2023/12/14 01:47:08;;;;;;;3.63;2.27;;;7.40;98.00;;;;;;5033778;28;20511;-66
2023/12/14 01:49:35;;;;;;;2.90;2.30;;;7.40;98.00;;;;;;5015384;28;21016;-66
2023/12/14 01:52:02;;;;;;;4.30;2.40;;;7.40;98.00;;;;;;5033301;28;20852;-65
2023/12/14 01:54:29;;;;;;;4.00;2.50;;;7.40;98.00;;;;;;5032394;28;20940;-66
2023/12/14 01:56:56;;;;;;;3.90;2.43;;;7.40;98.00;;;;;;5033076;28;20795;-66
2023/12/14 01:59:23;;;;;;;5.03;2.70;;;7.70;98.00;;;;;;5033081;28;20489;-66
2023/12/14 02:01:57;;;;;;;5.73;2.90;;;7.80;98.00;;;;;;5033206;28;20939;-65
2023/12/14 02:04:25;;;;;;;4.63;2.73;;;7.80;98.00;;;;;;5033540;28;20539;-65
2023/12/14 02:06:52;;;;;;;6.00;3.30;;;7.70;98.00;;;;;;5033392;28;21118;-65
2023/12/14 02:09:19;;;;;;;4.13;2.70;;;7.60;98.00;;;;;;5033203;28;20497;-65
2023/12/14 02:11:46;;;;;;;4.20;2.80;;;7.40;98.00;;;;;;5032920;28;20502;-66
2023/12/14 02:14:14;;;;;;;4.43;2.67;;;7.20;98.00;;;;;;5014404;28;20462;-67
2023/12/14 02:16:41;;;;;;;6.50;3.20;;;7.20;98.00;;;;;;5031686;28;20456;-65
2023/12/14 02:19:10;;;;;;;4.33;2.50;;;7.20;98.00;;;;;;5031836;28;20964;-66
2023/12/14 02:21:38;;;;;;;5.70;3.00;;;7.20;98.00;;;;;;5031792;28;20460;-65
2023/12/14 02:24:07;;;;;;;3.50;2.37;;;7.20;98.00;;;;;;5032208;28;20458;-66
2023/12/14 02:26:34;;;;;;;6.23;2.90;;;7.20;98.00;;;;;;5032238;28;20955;-66
2023/12/14 02:29:02;;;;;;;9.57;3.40;;;7.20;98.00;;;;;;5032073;28;20486;-66
2023/12/14 02:31:29;;;;;;;8.73;3.20;;;7.30;98.00;;;;;;5013504;28;20458;-65
2023/12/14 02:34:01;;;;;;;8.73;3.97;;;7.30;98.00;;;;;;5012923;28;20928;-65
2023/12/14 02:36:28;;;;;;;8.03;3.43;;;7.20;98.00;;;;;;5014164;28;20457;-65
2023/12/14 02:38:56;;;;;;;4.70;3.00;;;7.10;98.00;;;;;;5030777;28;20460;-67
2023/12/14 02:41:24;;;;;;;7.47;3.20;;;7.00;98.00;;;;;;5013629;28;20449;-65
2023/12/14 02:43:51;;;;;;;6.07;2.80;;;7.10;98.00;;;;;;5032012;28;20450;-66
2023/12/14 02:46:18;;;;;;;6.07;2.93;;;7.40;98.00;;;;;;5014350;28;20457;-67
2023/12/14 02:48:45;;;;;;;4.67;2.80;;;7.50;98.00;;;;;;5030319;28;20459;-66
2023/12/14 02:51:15;;;;;;;8.20;3.93;;;7.50;98.00;;;;;;5030596;28;20468;-66
2023/12/14 02:53:43;;;;;;;8.57;3.40;;;7.30;98.00;;;;;;5013554;28;20466;-66
2023/12/14 02:56:11;;;;;;;14.90;5.83;;;7.20;98.00;;;;;;5031319;28;20457;-66
2023/12/14 02:58:40;;;;;;;13.40;5.10;;;7.10;98.00;;;;;;5030872;28;20820;-66
2023/12/14 03:01:10;;;;;;;4.67;2.80;;;7.10;98.00;;;;;;5031367;28;20462;-65
2023/12/14 03:03:39;;;;;;;3.90;2.70;;;7.10;98.00;;;;;;5031425;28;20835;-65
2023/12/14 03:06:07;;;;;;;4.83;3.00;;;7.00;98.00;;;;;;5031287;28;20553;-66
2023/12/14 03:08:33;;;;;;;5.80;2.70;;;7.00;98.00;;;;;;5031331;28;20445;-66
2023/12/14 03:11:00;;;;;;;5.80;2.60;;;7.10;98.00;;;;;;5012722;28;20484;-65
2023/12/14 03:13:28;;;;;;;3.93;2.50;;;7.10;98.00;;;;;;4976527;28;1551772;-65
2023/12/14 03:15:56;;;;;;;4.83;2.70;;;7.10;98.00;;;;;;5013905;28;20460;-65
2023/12/14 03:18:23;;;;;;;5.03;2.90;;;7.20;98.00;;;;;;5032182;28;20456;-65
2023/12/14 03:20:50;;;;;;;5.70;2.67;;;7.20;98.00;;;;;;5031935;28;20499;-65
2023/12/14 03:23:19;;;;;;;6.90;2.50;;;7.20;98.00;;;;;;5031140;28;20461;-65
2023/12/14 03:25:46;;;;;;;2.63;2.23;;;7.20;98.00;;;;;;5030953;28;20466;-66
2023/12/14 03:28:14;;;;;;;5.97;2.63;;;7.30;98.00;;;;;;5014448;28;20466;-66
2023/12/14 03:30:41;;;;;;;6.63;3.40;;;7.30;98.00;;;;;;5031858;28;20485;-66
2023/12/14 03:33:10;;;;;;;9.50;3.03;;;7.20;98.00;;;;;;5031416;28;20458;-66
2023/12/14 03:35:37;;;;;;;10.40;3.00;;;7.20;98.00;;;;;;5031857;28;20461;-66
2023/12/14 03:38:05;;;;;;;4.57;2.50;;;7.20;98.00;;;;;;5031490;28;20461;-66
2023/12/14 03:40:32;;;;;;;3.87;2.60;;;7.30;98.00;;;;;;5013489;28;20465;-67
2023/12/14 03:42:59;;;;;;;7.30;3.10;;;7.40;98.00;;;;;;5012563;28;20987;-67
2023/12/14 03:45:26;;;;;;;10.53;4.23;;;7.40;98.00;;;;;;5030380;28;20453;-66
2023/12/14 03:47:53;;;;;;;11.20;4.37;;;7.30;98.00;;;;;;5034402;28;20931;-65
2023/12/14 03:50:22;;;;;;;6.10;3.27;;;7.20;98.00;;;;;;5018460;28;20583;-65
2023/12/14 03:52:51;;;;;;;10.87;4.37;;;7.10;98.00;;;;;;5035457;28;20763;-65
2023/12/14 03:55:18;;;;;;;6.87;3.47;;;7.10;98.00;;;;;;5017068;28;20461;-65
2023/12/14 03:57:45;;;;;;;9.93;3.30;;;7.00;98.00;;;;;;5035943;28;20459;-65
2023/12/14 04:00:13;;;;;;;6.63;2.93;;;7.10;98.00;;;;;;5035117;28;20460;-66
2023/12/14 04:02:41;;;;;;;3.33;2.00;;;7.10;98.00;;;;;;5035837;28;20946;-65
2023/12/14 04:05:09;;;;;;;4.20;2.30;;;7.10;98.00;;;;;;5017786;28;20455;-66
2023/12/14 04:07:40;;;;;;;4.50;2.10;;;7.20;98.00;;;;;;5034878;28;20509;-66
2023/12/14 04:10:08;;;;;;;4.10;2.30;;;7.40;98.00;;;;;;5018129;28;20564;-65
2023/12/14 04:12:43;;;;;;;3.90;2.40;;;7.40;98.00;;;;;;5034714;28;20451;-66
2023/12/14 04:15:11;;;;;;;4.07;2.50;;;7.30;98.00;;;;;;5017447;28;20468;-66
2023/12/14 04:17:38;;;;;;;3.57;2.30;;;7.30;98.00;;;;;;5033317;28;20543;-66
2023/12/14 04:20:07;;;;;;;2.67;2.13;;;7.30;98.00;;;;;;5032998;28;20461;-67
2023/12/14 04:22:37;;;;;;;4.57;2.50;;;7.30;98.00;;;;;;5033654;28;20533;-65
2023/12/14 04:25:04;;;;;;;2.70;2.30;;;7.20;98.00;;;;;;5033682;28;20453;-66
2023/12/14 04:27:31;;;;;;;3.27;2.30;;;7.20;98.00;;;;;;5033402;28;20457;-67
2023/12/14 04:29:59;;;;;;;3.87;2.37;;;7.20;98.00;;;;;;5033870;28;20867;-65
2023/12/14 04:32:26;;;;;;;3.63;2.27;;;7.20;98.00;;;;;;5033496;28;20462;-67
2023/12/14 04:34:53;;;;;;;4.00;2.53;;;7.20;98.00;;;;;;5033515;28;20596;-66
2023/12/14 04:37:21;;;;;;;3.20;2.17;;;7.30;98.00;;;;;;5033914;28;20459;-67
2023/12/14 04:39:50;;;;;;;3.43;1.90;;;7.20;98.00;;;;;;5033465;28;20470;-65
2023/12/14 04:42:18;;;;;;;2.90;1.80;;;7.20;98.00;;;;;;5033882;28;20450;-66
2023/12/14 04:44:45;;;;;;;2.63;2.00;;;7.20;98.00;;;;;;5034502;28;20542;-65
2023/12/14 04:47:12;;;;;;;2.50;2.00;;;7.20;98.00;;;;;;5034439;28;20457;-67
2023/12/14 04:49:39;;;;;;;3.43;2.03;;;7.30;98.00;;;;;;5033384;28;20453;-66
2023/12/14 04:52:06;;;;;;;3.80;2.30;;;7.40;98.00;;;;;;5016165;28;20455;-67
2023/12/14 04:54:37;;;;;;;4.63;2.70;;;7.60;98.00;;;;;;5033656;28;20509;-65
2023/12/14 04:57:06;;;;;;;4.90;2.60;;;7.70;98.00;;;;;;5033130;28;20566;-65
2023/12/14 04:59:33;;;;;;;4.10;2.67;;;7.60;98.00;;;;;;5033499;28;20456;-66
2023/12/14 05:02:00;;;;;;;4.37;2.40;;;7.60;98.00;;;;;;5033624;28;20461;-66
2023/12/14 05:04:27;;;;;;;4.53;2.73;;;7.60;98.00;;;;;;5033586;28;20525;-66
2023/12/14 05:06:55;;;;;;;4.17;2.27;;;7.60;98.00;;;;;;5032464;28;20454;-65
2023/12/14 05:09:22;;;;;;;3.13;2.07;;;7.60;98.00;;;;;;5033611;28;20456;-66
2023/12/14 05:11:49;;;;;;;2.60;2.00;;;7.50;98.00;;;;;;5015718;28;21096;-66
2023/12/14 05:14:18;;;;;;;3.83;2.30;;;7.40;98.00;;;;;;5033705;28;20548;-66
2023/12/14 05:16:45;;;;;;;4.30;2.40;;;7.50;98.00;;;;;;5033363;28;20454;-66
2023/12/14 05:19:12;;;;;;;3.80;2.10;;;7.50;98.00;;;;;;5034266;28;20462;-66
2023/12/14 05:21:39;;;;;;;3.20;2.20;;;7.60;98.00;;;;;;5016457;28;20514;-65
2023/12/14 05:24:07;;;;;;;4.80;2.20;;;7.60;98.00;;;;;;5016128;28;20458;-66
2023/12/14 05:26:35;;;;;;;2.33;1.83;;;7.60;98.00;;;;;;5034029;28;20457;-66
2023/12/14 05:29:02;;;;;;;2.07;1.77;;;7.60;98.00;;;;;;5016576;28;20466;-65
2023/12/14 05:31:31;;;;;;;2.37;1.80;;;7.60;98.00;;;;;;5033857;28;20488;-66
2023/12/14 05:33:58;;;;;;;2.40;1.60;;;7.60;98.00;;;;;;5016444;28;20788;-66
2023/12/14 05:36:25;;;;;;;3.10;2.03;;;7.60;98.00;;;;;;5033297;28;20462;-66
2023/12/14 05:38:52;;;;;;;6.73;2.17;;;7.60;98.00;;;;;;5033608;28;20465;-65
2023/12/14 05:41:20;;;;;;;3.37;2.20;;;7.60;98.00;;;;;;5033151;28;20510;-66
2023/12/14 05:43:47;;;;;;;3.03;2.00;;;7.60;98.00;;;;;;5033167;28;20462;-66
2023/12/14 05:46:22;;;;;;;2.90;1.93;;;7.60;98.00;;;;;;5033582;28;20484;-66
2023/12/14 05:48:50;;;;;;;2.17;1.60;;;7.60;98.00;;;;;;5032215;28;20484;-66
2023/12/14 05:51:28;;;;;;;3.00;2.20;;;7.50;98.00;;;;;;5032203;28;20489;-66
2023/12/14 05:53:55;;;;;;;4.00;2.17;;;7.50;98.00;;;;;;5033090;28;20466;-66
2023/12/14 05:56:22;;;;;;;3.83;2.07;;;7.40;98.00;;;;;;5016012;28;20455;-67
2023/12/14 05:58:49;;;;;;;2.80;2.00;;;7.50;98.00;;;;;;5033736;28;20454;-66
2023/12/14 06:01:18;;;;;;;4.80;2.77;;;7.50;98.00;;;;;;5033379;28;20512;-66
2023/12/14 06:03:45;;;;;;;3.57;2.13;;;7.50;98.00;;;;;;5033503;28;20507;-66
2023/12/14 06:06:14;;;;;;;4.50;1.80;;;7.50;98.00;;;;;;5033518;28;20457;-66
2023/12/14 06:08:42;;;;;;;2.77;1.90;;;7.60;98.00;;;;;;5032854;28;20463;-66
2023/12/14 06:11:09;;;;;;;3.17;1.90;;;7.60;98.00;;;;;;5033371;28;20521;-66
2023/12/14 06:13:37;;;;;;;5.30;2.30;;;7.60;98.00;;;;;;5033425;28;20456;-65
2023/12/14 06:16:06;;;;;;;3.10;2.00;;;7.60;98.00;;;;;;5033565;28;20458;-65
2023/12/14 06:18:33;;;;;;;2.83;2.03;;;7.60;98.00;;;;;;5016211;28;20461;-65
2023/12/14 06:21:00;;;;;;;2.33;1.87;;;7.60;98.00;;;;;;5033362;28;20509;-66
2023/12/14 06:23:29;;;;;;;6.60;2.40;;;7.50;98.00;;;;;;5015903;28;20454;-66
2023/12/14 06:25:56;;;;;;;3.23;2.30;;;7.50;98.00;;;;;;5015722;28;20849;-65
2023/12/14 06:28:23;;;;;;;3.60;2.00;;;7.50;98.00;;;;;;5033266;28;20450;-65
2023/12/14 06:30:50;;;;;;;3.93;2.13;;;7.40;98.00;;;;;;5015171;28;20478;-66
2023/12/14 06:33:17;;;;;;;3.83;2.13;;;7.40;98.00;;;;;;5015212;28;20504;-65
2023/12/14 06:35:44;;;;;;;3.43;2.30;;;7.60;98.00;;;;;;5032609;28;20456;-66
2023/12/14 06:38:14;;;;;;;3.83;2.10;;;7.70;98.00;;;;;;5015363;28;20453;-65
2023/12/14 06:40:43;;;;;;;3.33;2.00;;;7.80;98.00;;;;;;5032662;28;20462;-65
2023/12/14 06:43:10;;;;;;;3.00;2.20;;;7.80;98.00;;;;;;5014835;28;20489;-67
2023/12/14 06:45:38;;;;;;;3.93;2.17;;;7.80;98.00;;;;;;5032481;28;20465;-65
2023/12/14 06:48:06;;;;;;;3.83;2.00;;;7.70;98.00;;;;;;5032309;28;20472;-64
2023/12/14 06:50:33;;;;;;;3.47;2.30;;;7.60;98.00;;;;;;5032332;28;20481;-66
2023/12/14 06:53:00;;;;;;;4.40;2.50;;;7.60;98.00;;;;;;5032476;28;20469;-66
2023/12/14 06:55:27;;;;;;;4.47;2.67;;;7.50;98.00;;;;;;5032199;28;20943;-65
2023/12/14 06:57:55;;;;;;;4.40;2.53;;;7.40;98.00;;;;;;5014904;28;20475;-66
2023/12/14 07:00:23;;;;;;;5.83;2.97;;;7.40;98.00;;;;;;5032251;28;20460;-65
2023/12/14 07:02:50;;;;;;;5.77;3.00;;;7.40;98.00;;;;;;5032331;28;20450;-60
2023/12/14 07:05:17;;;;;;;4.50;2.60;;;7.40;98.00;;;;;;5032443;28;20452;-61
2023/12/14 07:07:44;;;;;;;5.80;2.60;;;7.40;98.00;;;;;;5042592;28;20449;-60
2023/12/14 07:10:11;;;;;;;4.87;2.63;;;7.50;98.00;;;;;;5052217;28;20454;-61
2023/12/14 07:12:38;;;;;;;6.13;2.90;;;7.50;98.00;;;;;;5052215;28;20839;-61
2023/12/14 07:15:08;;;;;;;3.90;2.87;;;7.50;98.00;;;;;;5052005;28;20469;-60
2023/12/14 07:17:35;;;;;;;6.17;3.10;;;7.50;98.00;;;;;;5051666;28;20456;-61
2023/12/14 07:20:03;;;;;;;5.20;2.70;;;7.50;98.00;;;;;;5051968;28;20497;-60
2023/12/14 07:22:30;;;;;;;5.10;3.00;;;7.60;98.00;;;;;;5051832;28;20451;-61
2023/12/14 07:24:57;;;;;;;8.07;3.13;;;7.50;98.00;;;;;;5051989;28;20457;-61
2023/12/14 07:27:24;;;;;;;6.27;3.13;;;7.60;98.00;;;;;;5052041;28;20478;-61
2023/12/14 07:29:55;;;;;;;5.00;2.63;;;7.50;98.00;;;;;;5051905;28;20454;-61
2023/12/14 07:32:23;;;;;;;5.17;2.93;;;7.50;98.00;;;;;;5033695;28;21002;-61
2023/12/14 07:34:50;;;;;;;6.70;3.10;;;7.50;98.00;;;;;;5051838;28;20970;-61
2023/12/14 07:37:17;;;;;;;6.33;3.10;;;7.60;98.00;;;;;;5051645;28;20460;-61
2023/12/14 07:39:44;;;;;;;5.27;3.23;;;7.60;98.00;;;;;;5051860;28;20792;-61
2023/12/14 07:42:19;;;;;;;4.93;2.50;;;7.60;98.00;;;;;;5051716;28;20455;-61
2023/12/14 07:44:46;;;;;;;7.37;3.70;;;7.60;98.00;;;;;;5051775;28;20460;-61
2023/12/14 07:47:13;;;;;;;18.63;7.27;;;7.60;98.00;;;;;;5051700;28;20460;-61
2023/12/14 07:49:41;;;;;;;11.83;5.40;;;7.60;98.00;;;;;;5051644;28;20868;-62
2023/12/14 07:52:10;;;;;;;11.20;4.90;;;7.60;98.00;;;;;;5051489;28;20485;-61
2023/12/14 07:54:37;;;;;;;12.33;4.60;;;7.60;98.00;;;;;;5051552;28;20530;-61
2023/12/14 07:57:05;;;;;;;7.73;3.87;;;7.60;98.00;;;;;;5051710;28;20535;-61
2023/12/14 07:59:32;;;;;;;8.87;4.20;;;7.60;98.00;;;;;;5051739;28;20461;-61
2023/12/14 08:01:59;;;;;;;6.70;3.70;;;7.60;98.00;;;;;;5051717;28;20454;-61
2023/12/14 08:04:26;;;;;;;8.77;4.10;;;7.60;98.00;;;;;;5051855;28;21017;-61
2023/12/14 08:06:56;;;;;;;9.60;4.07;;;7.50;98.00;;;;;;5051487;28;20452;-61
2023/12/14 08:09:23;;;;;;;9.77;4.23;;;7.60;98.00;;;;;;5033913;28;20872;-61
2023/12/14 08:11:52;;;;;;;6.90;3.83;;;7.60;98.00;;;;;;5014180;28;20487;-61
2023/12/14 08:14:19;;;;;;;8.00;3.80;;;7.60;98.00;;;;;;5031655;28;20468;-61
2023/12/14 08:16:46;;;;;;;10.33;4.77;;;7.60;98.00;;;;;;5013659;28;20950;-61
2023/12/14 08:19:13;;;;;;;12.10;4.73;;;7.70;98.00;;;;;;5030605;28;20459;-61
2023/12/14 08:21:40;;;;;;;8.30;4.30;;;7.70;98.00;;;;;;5031106;28;20451;-61
2023/12/14 08:24:09;;;;;;;7.50;3.70;;;7.80;98.00;;;;;;5013791;28;20468;-61
2023/12/14 08:26:36;;;;;;;7.97;4.13;;;7.90;98.00;;;;;;5031269;28;20801;-61
2023/12/14 08:29:03;;;;;;;9.57;4.07;;;8.00;98.00;;;;;;5031079;28;20450;-61
2023/12/14 08:31:31;;;;;;;7.20;4.00;;;8.00;98.00;;;;;;5031216;28;20493;-61
2023/12/14 08:33:58;;;;;;;8.60;4.13;;;8.00;98.00;;;;;;5016621;28;20455;-61
2023/12/14 08:36:25;;;;;;;8.40;3.80;;;8.10;98.00;;;;;;5034757;28;21175;-61
2023/12/14 08:38:52;;;;;;;9.80;4.10;;;8.10;98.00;;;;;;5034474;28;20457;-61
2023/12/14 08:41:21;;;;;;;2.93;2.20;;;8.10;98.00;;;;;;5034596;28;20476;-62
2023/12/14 08:43:48;;;;;;;4.87;2.60;;;8.70;98.00;;;;;;5034473;28;20448;-61
2023/12/14 08:46:15;;;;;;;5.60;3.37;;;9.90;98.00;;;;;;5034572;28;20463;-61
2023/12/14 08:48:42;;;;;;;6.57;3.33;;;10.60;98.00;;;;;;5034579;28;21000;-61
2023/12/14 08:51:09;;;;;;;7.13;3.07;;;10.70;98.00;;;;;;5034248;28;20487;-61
2023/12/14 08:53:36;;;;;;;5.93;3.10;;;10.60;98.00;;;;;;5034242;28;20449;-60
2023/12/14 08:56:04;;;;;;;5.60;3.40;;;10.40;98.00;;;;;;5033689;28;20458;-61
2023/12/14 08:58:33;;;;;;;6.47;3.77;;;10.10;98.00;;;;;;5034334;28;20838;-61
2023/12/14 09:01:00;;;;;;;5.50;3.07;;;10.00;98.00;;;;;;5032839;28;20453;-61
2023/12/14 09:03:27;;;;;;;8.00;3.57;;;9.90;98.00;;;;;;5034455;28;20465;-63
2023/12/14 09:05:54;;;;;;;8.73;4.00;;;9.80;98.00;;;;;;5034382;28;20837;-63
2023/12/14 09:08:21;;;;;;;9.77;4.60;;;9.70;98.00;;;;;;5034283;28;20449;-60
2023/12/14 09:10:48;;;;;;;9.40;4.60;;;9.60;98.00;;;;;;5034041;28;20934;-60
2023/12/14 09:13:15;;;;;;;11.87;4.90;;;9.60;98.00;;;;;;5034419;28;20461;-60
2023/12/14 09:15:43;;;;;;;9.43;4.90;;;9.60;98.00;;;;;;5034050;28;20496;-61
2023/12/14 09:18:30;;;;;;;10.43;4.80;;;9.60;98.00;;;;;;5034043;28;20507;-60
2023/12/14 09:20:57;;;;;;;12.33;5.57;;;9.60;98.00;;;;;;5033187;28;20832;-61
2023/12/14 09:23:24;;;;;;;11.43;5.80;;;9.50;98.00;;;;;;5034251;28;20793;-60
2023/12/14 09:25:51;;;;;;;12.80;5.73;;;9.50;98.00;;;;;;5034151;28;20465;-61
2023/12/14 09:28:18;;;;;;;12.30;5.50;;;9.60;98.00;;;;;;5034293;28;20952;-60
2023/12/14 09:30:47;;;;;;;13.83;6.20;;;9.60;98.00;;;;;;5033923;28;20830;-60
2023/12/14 09:33:14;;;;;;;14.30;5.67;;;9.50;98.00;;;;;;5033983;28;21011;-60
2023/12/14 09:35:42;;;;;;;15.20;6.50;;;9.40;98.00;;;;;;5034064;28;20850;-60
2023/12/14 09:38:09;;;;;;;13.37;6.07;;;9.40;98.00;;;;;;5033942;28;20551;-60
2023/12/14 09:40:36;;;;;;;12.93;6.33;;;9.50;98.00;;;;;;5033737;28;20450;-60
2023/12/14 09:43:03;;;;;;;14.77;6.33;;;9.60;98.00;;;;;;5033690;28;20975;-60
2023/12/14 09:45:31;;;;;;;15.07;6.30;;;9.60;98.00;;;;;;5032717;28;20497;-60
2023/12/14 09:48:01;;;;;;;11.23;5.40;;;9.70;98.00;;;;;;5033400;28;20474;-61
2023/12/14 09:50:29;;;;;;;13.80;5.67;;;9.60;98.00;;;;;;5033801;28;20796;-61
2023/12/14 09:52:57;;;;;;;13.70;5.57;;;9.50;98.00;;;;;;5033499;28;20984;-61
2023/12/14 09:55:24;;;;;;;13.50;5.10;;;9.30;98.00;;;;;;5000241;28;20465;-62
2023/12/14 09:57:51;;;;;;;17.63;6.60;;;9.10;98.00;;;;;;5033667;28;20972;-60
2023/12/14 10:00:34;;;;;;;15.33;6.50;;;9.10;98.00;;;;;;5033557;28;20460;-61
2023/12/14 10:03:19;;;;;;;14.27;5.93;;;9.00;98.00;;;;;;5033256;28;20840;-61
2023/12/14 10:05:47;;;;;;;14.67;6.20;;;9.00;98.00;;;;;;5033492;28;20454;-61
2023/12/14 10:08:18;;;;;;;11.70;5.90;;;9.00;98.00;;;;;;5033203;28;21104;-61
2023/12/14 10:10:51;;;;;;;15.13;5.80;;;9.00;98.00;;;;;;5033084;28;20448;-61
2023/12/14 10:13:18;;;;;;;14.53;5.77;;;9.00;98.00;;;;;;5033063;28;20484;-61
2023/12/14 10:15:46;;;;;;;11.47;5.37;;;8.90;98.00;;;;;;5032985;28;20461;-61
2023/12/14 10:18:23;;;;;;;12.27;5.50;;;8.90;98.00;;;;;;5032920;28;20827;-61
2023/12/14 10:20:50;;;;;;;10.30;5.33;;;9.00;98.00;;;;;;5032741;28;20872;-62
2023/12/14 10:23:19;;;;;;;12.87;5.50;;;9.00;98.00;;;;;;5033050;28;20523;-61
2023/12/14 10:25:47;;;;;;;13.30;5.50;;;9.00;98.00;;;;;;5032917;28;20457;-61
2023/12/14 10:28:14;;;;;;;14.30;5.07;;;9.10;98.00;;;;;;5032805;28;20457;-61
2023/12/14 10:30:42;;;;;;;10.60;4.60;;;9.10;98.00;;;;;;5031528;28;20462;-60
2023/12/14 10:33:10;;;;;;;10.27;5.00;;;9.10;98.00;;;;;;5014601;28;20491;-62
2023/12/14 10:35:38;;;;;;;9.90;5.00;;;9.30;98.00;;;;;;5031781;28;20485;-63
2023/12/14 10:38:09;;;;;;;9.93;5.30;;;9.40;98.00;;;;;;5032410;28;20458;-61
2023/12/14 10:40:40;;;;;;;11.80;4.83;;;9.40;98.00;;;;;;5032509;28;20548;-61
2023/12/14 10:43:11;;;;;;;12.23;5.20;;;9.30;98.00;;;;;;5014754;28;20972;-62
2023/12/14 10:45:40;;;;;;;13.57;5.13;;;9.50;98.00;;;;;;5031749;28;20455;-61
2023/12/14 10:48:08;;;;;;;11.30;5.20;;;9.60;98.00;;;;;;5031485;28;20455;-61
2023/12/14 10:50:38;;;;;;;10.67;5.00;;;9.60;98.00;;;;;;5032442;28;20453;-61
2023/12/14 10:53:07;;;;;;;15.70;5.70;;;9.60;98.00;;;;;;5032174;28;20483;-61
2023/12/14 10:55:38;;;;;;;12.40;5.77;;;9.60;98.00;;;;;;5032024;28;20450;-61
2023/12/14 10:58:06;;;;;;;10.50;4.97;;;9.60;98.00;;;;;;5032202;28;20546;-61
2023/12/14 11:00:34;;;;;;;13.07;5.80;;;9.60;98.00;;;;;;5032179;28;20512;-62
2023/12/14 11:03:01;;;;;;;13.43;5.33;;;9.60;98.00;;;;;;5031996;28;20467;-61
2023/12/14 11:05:30;;;;;;;11.70;5.57;;;9.50;98.00;;;;;;5032096;28;20473;-62
2023/12/14 11:08:03;;;;;;;16.97;5.90;;;9.60;98.00;;;;;;5032063;28;20524;-61
2023/12/14 11:10:39;;;;;;;13.60;6.40;;;9.60;98.00;;;;;;5032202;28;20475;-61
2023/12/14 11:13:10;;;;;;;11.70;5.57;;;9.60;98.00;;;;;;5031814;28;20872;-62
2023/12/14 11:15:39;;;;;;;14.43;6.83;;;9.60;98.00;;;;;;5031845;28;20499;-61
2023/12/14 11:18:27;;;;;;;14.20;6.30;;;9.60;98.00;;;;;;5032128;28;20455;-61
2023/12/14 11:21:10;;;;;;;13.27;5.80;;;9.50;98.00;;;;;;5031606;28;20454;-62
2023/12/14 11:23:40;;;;;;;11.57;5.80;;;9.50;98.00;;;;;;5014792;28;20790;-61
2023/12/14 11:26:10;;;;;;;14.60;5.17;;;9.40;98.00;;;;;;5031879;28;20463;-61
2023/12/14 11:28:38;;;;;;;16.53;6.90;;;9.50;98.00;;;;;;5031993;28;20484;-61
2023/12/14 11:31:07;;;;;;;13.90;6.23;;;9.60;98.00;;;;;;5031960;28;20568;-61
2023/12/14 11:33:35;;;;;;;13.73;6.20;;;9.60;98.00;;;;;;5031936;28;20484;-62
2023/12/14 11:36:03;;;;;;;15.83;7.53;;;9.70;98.00;;;;;;5031717;28;20880;-61
2023/12/14 11:38:31;;;;;;;12.43;5.70;;;9.80;98.00;;;;;;5031981;28;20547;-61
2023/12/14 11:41:00;;;;;;;15.23;6.90;;;9.70;98.00;;;;;;5031846;28;20457;-61
2023/12/14 11:43:27;;;;;;;12.30;5.87;;;9.80;98.00;;;;;;5032353;28;20952;-61
2023/12/14 11:45:56;;;;;;;11.10;5.40;;;9.80;98.00;;;;;;4981835;28;20510;-61
2023/12/14 11:50:52;;;;;;;16.03;5.60;;;9.60;98.00;;;;;;4989864;28;20479;-65
2023/12/14 11:53:19;;;;;;;22.07;5.90;;;9.70;98.00;;;;;;4992198;28;20480;-65
2023/12/14 11:55:47;;;;;;;11.10;5.40;;;9.70;98.00;;;;;;4992114;28;20452;-65
2023/12/14 11:58:18;;;;;;;12.90;5.90;;;9.70;98.00;;;;;;4992268;28;20463;-65
2023/12/14 12:00:46;;;;;;;13.37;5.60;;;9.80;98.00;;;;;;4992462;28;20842;-65
2023/12/14 12:03:15;;;;;;;13.73;5.70;;;9.80;98.00;;;;;;4992147;28;20959;-64
2023/12/14 12:05:44;;;;;;;14.57;6.50;;;9.70;98.00;;;;;;4992154;28;20483;-65
2023/12/14 12:08:11;;;;;;;12.43;5.90;;;9.70;98.00;;;;;;4994067;28;20453;-65
2023/12/14 12:10:39;;;;;;;17.80;6.07;;;9.70;98.00;;;;;;4996138;28;20831;-65
2023/12/14 12:13:08;;;;;;;13.60;5.60;;;9.70;98.00;;;;;;4995795;28;20483;-64
2023/12/14 12:15:39;;;;;;;22.70;6.30;;;9.80;98.00;;;;;;4995973;28;20823;-64
2023/12/14 12:18:08;;;;;;;12.20;5.57;;;9.70;98.00;;;;;;4995764;28;20459;-65
2023/12/14 12:20:35;;;;;;;13.00;5.80;;;9.70;98.00;;;;;;4996046;28;20465;-64
2023/12/14 12:23:03;;;;;;;12.77;5.40;;;9.70;98.00;;;;;;4995668;28;20449;-64
2023/12/14 12:25:32;;;;;;;13.90;6.60;;;9.70;98.00;;;;;;4995385;28;20448;-64
2023/12/14 12:27:59;;;;;;;11.33;5.03;;;9.80;98.00;;;;;;4994898;28;20460;-64
2023/12/14 12:30:26;;;;;;;9.73;4.97;;;9.90;98.00;;;;;;5003657;28;20489;-65
2023/12/14 12:32:55;;;;;;;9.00;5.27;;;9.80;98.00;;;;;;5014725;28;20545;-64
2023/12/14 12:35:23;;;;;;;11.33;4.97;;;9.70;98.00;;;;;;5014023;28;20815;-62
2023/12/14 12:37:54;;;;;;;12.23;5.90;;;9.70;98.00;;;;;;5015379;28;20467;-64
2023/12/14 12:40:22;;;;;;;12.80;5.80;;;9.70;98.00;;;;;;5015421;28;20453;-64
2023/12/14 12:42:50;;;;;;;13.00;5.20;;;9.80;98.00;;;;;;5015347;28;20466;-64
2023/12/14 12:45:18;;;;;;;15.00;6.13;;;9.90;98.00;;;;;;5015419;28;20831;-64
2023/12/14 12:47:46;;;;;;;15.10;5.17;;;9.90;98.00;;;;;;5015226;28;20450;-64
2023/12/14 12:50:15;;;;;;;12.90;5.47;;;9.80;98.00;;;;;;5015180;28;20939;-64
2023/12/14 12:52:43;;;;;;;11.27;4.60;;;9.70;98.00;;;;;;5015048;28;20485;-64
2023/12/14 12:55:11;;;;;;;14.67;5.47;;;9.70;98.00;;;;;;5015152;28;20458;-64
2023/12/14 12:57:38;;;;;;;9.57;4.60;;;9.70;98.00;;;;;;5015152;28;20813;-64
2023/12/14 13:00:10;;;;;;;10.93;4.80;;;9.60;98.00;;;;;;5015204;28;20462;-64